Time;durP1;ratioP1;P1;durP2;ratioP2;P2;SDS_P1;SDS_P2;PMS_P1;PMS_P2;Temp;Humidity;BMP_temperature;BMP_pressure;BME280_temperature;BME280_humidity;BME280_pressure;Samples;Min_cycle;Max_cycle;Signal;HPM_P1;HPM_P2
2022/08/25 00:01:56;;;;;;;;;;;;;;;22.70;67.33;99925.13;4390001;32;34133;-88
2022/08/25 00:04:25;;;;;;;;;;;;;;;22.70;67.41;99919.72;4389305;32;35152;-86
2022/08/25 00:06:54;;;;;;;;;;;;;;;22.58;67.72;99924.37;4388685;32;33950;-86
2022/08/25 00:09:29;;;;;;;;;;;;;;;22.55;67.77;99916.63;4399281;32;33385;-86
2022/08/25 00:11:56;;;;;;;;;;;;;;;22.53;68.00;99918.56;4377440;32;33629;-86
2022/08/25 00:14:29;;;;;;;;;;;;;;;22.54;68.01;99920.28;4377232;32;33702;-86
2022/08/25 00:16:56;;;;;;;;;;;;;;;22.56;68.07;99917.47;4401764;32;34402;-86
2022/08/25 00:19:26;;;;;;;;;;;;;;;22.65;67.62;99925.53;4399561;32;33582;-86
2022/08/25 00:21:55;;;;;;;;;;;;;;;22.55;68.06;99927.38;4375234;32;32849;-86
2022/08/25 00:24:23;;;;;;;;;;;;;;;22.49;68.23;99917.16;4375960;32;33065;-86
2022/08/25 00:26:54;;;;;;;;;;;;;;;22.64;67.59;99915.72;4386693;32;34028;-85
2022/08/25 00:29:21;;;;;;;;;;;;;;;22.62;67.51;99920.44;4385587;32;32321;-85
2022/08/25 00:31:49;;;;;;;;;;;;;;;22.41;67.89;99915.19;4387848;32;34580;-85
2022/08/25 00:34:18;;;;;;;;;;;;;;;22.37;68.03;99915.59;4388209;32;33407;-85
2022/08/25 00:36:46;;;;;;;;;;;;;;;22.39;67.95;99916.28;4387634;32;32826;-85
2022/08/25 00:39:13;;;;;;;;;;;;;;;22.20;68.62;99904.50;4386353;32;33149;-87
2022/08/25 00:41:41;;;;;;;;;;;;;;;22.40;68.12;99918.84;4388460;32;33831;-87
2022/08/25 00:44:11;;;;;;;;;;;;;;;22.41;68.14;99914.34;4388177;32;34295;-87
2022/08/25 00:46:50;;;;;;;;;;;;;;;22.40;68.12;99918.00;4389129;32;34034;-86
2022/08/25 00:49:31;;;;;;;;;;;;;;;22.14;69.05;99918.53;4390446;32;33002;-87
2022/08/25 00:52:00;;;;;;;;;;;;;;;22.32;68.50;99915.16;4403848;32;34805;-87
2022/08/25 00:54:29;;;;;;;;;;;;;;;22.28;68.31;99911.06;4391801;32;32983;-87
2022/08/25 00:56:57;;;;;;;;;;;;;;;22.40;68.01;99913.47;4391135;32;33336;-87
2022/08/25 00:59:25;;;;;;;;;;;;;;;22.36;68.02;99916.56;4388500;32;33052;-87
2022/08/25 01:01:53;;;;;;;;;;;;;;;22.34;68.23;99913.19;4389244;32;34655;-87
2022/08/25 01:04:21;;;;;;;;;;;;;;;22.29;68.40;99907.38;4389948;32;34096;-88
2022/08/25 01:06:49;;;;;;;;;;;;;;;22.39;68.01;99903.69;4388743;32;35518;-87
2022/08/25 01:09:16;;;;;;;;;;;;;;;22.29;68.29;99902.00;4388437;32;32625;-87
2022/08/25 01:11:44;;;;;;;;;;;;;;;22.38;67.91;99901.16;4402901;32;34071;-88
2022/08/25 01:14:13;;;;;;;;;;;;;;;22.21;68.55;99906.22;4382634;32;33422;-87
2022/08/25 01:16:42;;;;;;;;;;;;;;;22.45;67.52;99910.34;4394657;32;33879;-87
2022/08/25 01:19:12;;;;;;;;;;;;;;;22.26;68.29;99905.78;4401850;32;32414;-87
2022/08/25 01:21:43;;;;;;;;;;;;;;;22.28;68.21;99906.53;4388858;32;33987;-87
2022/08/25 01:24:11;;;;;;;;;;;;;;;22.18;68.30;99909.19;4378214;32;32388;-86
2022/08/25 01:26:38;;;;;;;;;;;;;;;22.05;68.42;99913.94;4403000;32;34465;-87
2022/08/25 01:29:19;;;;;;;;;;;;;;;22.12;68.15;99915.09;4391502;32;31987;-86
2022/08/25 01:31:48;;;;;;;;;;;;;;;22.04;68.43;99906.88;4394637;32;33425;-85
2022/08/25 01:34:17;;;;;;;;;;;;;;;22.12;68.22;99908.87;4395555;32;34533;-85
2022/08/25 01:36:45;;;;;;;;;;;;;;;22.22;67.75;99902.56;4381232;32;34506;-85
2022/08/25 01:39:13;;;;;;;;;;;;;;;22.18;67.85;99898.44;4390972;32;33534;-86
2022/08/25 01:41:45;;;;;;;;;;;;;;;22.12;68.13;99896.28;4392775;32;34221;-86
2022/08/25 01:44:13;;;;;;;;;;;;;;;22.26;67.63;99897.72;4382577;32;33048;-86
2022/08/25 01:46:43;;;;;;;;;;;;;;;22.18;67.81;99898.44;4389557;32;33436;-87
2022/08/25 01:49:10;;;;;;;;;;;;;;;22.27;67.45;99901.28;4391985;32;32881;-87
2022/08/25 01:51:41;;;;;;;;;;;;;;;22.28;67.28;99902.97;4393987;32;33599;-87
2022/08/25 01:54:09;;;;;;;;;;;;;;;22.26;67.37;99900.41;4395293;32;34745;-87
2022/08/25 01:56:37;;;;;;;;;;;;;;;22.22;67.60;99899.03;4391964;32;33514;-87
2022/08/25 01:59:04;;;;;;;;;;;;;;;22.26;67.43;99910.31;4382181;32;33241;-86
2022/08/25 02:01:33;;;;;;;;;;;;;;;22.23;67.50;99906.94;4378994;32;33694;-88
2022/08/25 02:04:01;;;;;;;;;;;;;;;22.14;67.59;99899.69;4390559;32;32881;-88
2022/08/25 02:06:31;;;;;;;;;;;;;;;22.19;67.40;99904.66;4394487;32;33581;-87
2022/08/25 02:09:01;;;;;;;;;;;;;;;22.24;67.03;99903.25;4392876;32;32870;-87
2022/08/25 02:11:29;;;;;;;;;;;;;;;22.08;67.49;99902.91;4389317;32;33115;-87
2022/08/25 02:13:57;;;;;;;;;;;;;;;22.07;67.52;99895.81;4377090;32;33895;-87
2022/08/25 02:16:27;;;;;;;;;;;;;;;22.09;67.51;99901.06;4378663;32;33342;-87
2022/08/25 02:18:56;;;;;;;;;;;;;;;22.09;67.42;99891.16;4374634;32;33542;-85
2022/08/25 02:21:24;;;;;;;;;;;;;;;22.05;67.43;99895.13;4375758;32;33782;-84
2022/08/25 02:23:52;;;;;;;;;;;;;;;21.96;67.60;99893.25;4386751;32;33546;-84
2022/08/25 02:26:19;;;;;;;;;;;;;;;22.04;67.36;99885.34;4357390;32;33668;-84
2022/08/25 02:28:48;;;;;;;;;;;;;;;22.02;67.37;99894.53;4361156;32;32412;-86
2022/08/25 02:31:16;;;;;;;;;;;;;;;21.90;67.81;99891.97;4387232;32;34962;-85
2022/08/25 02:33:45;;;;;;;;;;;;;;;22.08;67.14;99885.94;4375458;32;34256;-85
2022/08/25 02:36:13;;;;;;;;;;;;;;;22.01;67.25;99888.31;4361767;32;33209;-87
2022/08/25 02:38:41;;;;;;;;;;;;;;;21.85;67.99;99893.38;4374690;32;34219;-88
2022/08/25 02:41:12;;;;;;;;;;;;;;;21.90;67.81;99899.19;4374591;32;32930;-87
2022/08/25 02:43:40;;;;;;;;;;;;;;;21.89;68.07;99892.13;4362467;32;32870;-87
2022/08/25 02:46:10;;;;;;;;;;;;;;;21.88;67.88;99885.00;4375158;32;32484;-87
2022/08/25 02:48:38;;;;;;;;;;;;;;;21.81;67.97;99887.41;4361924;32;32887;-87
2022/08/25 02:51:07;;;;;;;;;;;;;;;21.88;67.61;99885.00;4369788;32;33847;-86
2022/08/25 02:53:39;;;;;;;;;;;;;;;21.90;67.47;99881.22;4386374;32;32956;-86
2022/08/25 02:56:08;;;;;;;;;;;;;;;21.77;68.02;99883.28;4374181;32;34252;-86
2022/08/25 02:58:36;;;;;;;;;;;;;;;21.91;67.45;99880.22;4361856;32;32249;-86
2022/08/25 03:01:04;;;;;;;;;;;;;;;21.87;67.36;99883.31;4375527;32;34841;-86
2022/08/25 03:03:32;;;;;;;;;;;;;;;21.91;67.01;99884.75;4361925;32;32856;-85
2022/08/25 03:06:10;;;;;;;;;;;;;;;21.88;67.04;99882.31;4386766;32;33429;-86
2022/08/25 03:08:38;;;;;;;;;;;;;;;21.87;66.99;99880.63;4366490;32;33285;-86
2022/08/25 03:11:07;;;;;;;;;;;;;;;21.82;67.13;99883.72;4384682;32;34739;-87
2022/08/25 03:13:34;;;;;;;;;;;;;;;21.80;67.24;99882.19;4376869;32;33030;-87
2022/08/25 03:16:03;;;;;;;;;;;;;;;21.81;67.13;99878.50;4388230;32;35112;-87
2022/08/25 03:18:31;;;;;;;;;;;;;;;21.71;67.67;99876.63;4389397;32;32241;-87
2022/08/25 03:20:59;;;;;;;;;;;;;;;21.81;67.38;99881.19;4389247;32;33743;-87
2022/08/25 03:23:27;;;;;;;;;;;;;;;21.79;67.41;99883.16;4399830;32;34911;-87
2022/08/25 03:28:42;;;;;;;;;;;;;;;21.62;67.80;99874.75;4388138;32;32754;-85
2022/08/25 03:31:10;;;;;;;;;;;;;;;21.54;67.84;99877.25;4387867;32;34896;-85
2022/08/25 03:33:37;;;;;;;;;;;;;;;21.63;67.67;99876.44;4389764;32;32674;-85
2022/08/25 03:36:05;;;;;;;;;;;;;;;21.61;67.77;99883.81;4389198;32;34726;-86
2022/08/25 03:38:37;;;;;;;;;;;;;;;21.68;67.38;99887.66;4401953;32;32802;-85
2022/08/25 03:41:13;;;;;;;;;;;;;;;21.62;67.61;99887.34;4386670;32;34899;-86
2022/08/25 03:43:41;;;;;;;;;;;;;;;21.55;67.88;99881.66;4387478;32;34016;-86
2022/08/25 03:46:15;;;;;;;;;;;;;;;21.60;67.73;99884.81;4389206;32;33073;-85
2022/08/25 03:48:43;;;;;;;;;;;;;;;21.65;67.67;99884.41;4389225;32;33368;-85
2022/08/25 03:51:10;;;;;;;;;;;;;;;21.57;68.08;99887.75;4386157;32;32315;-85
2022/08/25 03:53:38;;;;;;;;;;;;;;;21.47;68.28;99881.50;4387751;32;33560;-88
2022/08/25 03:56:06;;;;;;;;;;;;;;;21.63;67.65;99868.41;4388108;32;33402;-88
2022/08/25 03:58:33;;;;;;;;;;;;;;;21.57;68.15;99881.53;4388407;32;33842;-88
2022/08/25 04:01:01;;;;;;;;;;;;;;;21.23;69.17;99885.28;4386511;32;33058;-88
2022/08/25 04:03:29;;;;;;;;;;;;;;;21.42;68.58;99884.59;4389372;32;34906;-88
2022/08/25 04:06:01;;;;;;;;;;;;;;;21.54;68.20;99882.62;4389051;32;34760;-88
2022/08/25 04:08:36;;;;;;;;;;;;;;;21.54;68.06;99888.00;4397480;32;34374;-88
2022/08/25 04:11:08;;;;;;;;;;;;;;;21.59;68.02;99880.38;4393006;32;34640;-88
2022/08/25 04:13:36;;;;;;;;;;;;;;;21.55;68.25;99889.69;4406756;32;33964;-87
2022/08/25 04:16:12;;;;;;;;;;;;;;;21.59;68.38;99892.97;4405325;32;34094;-87
2022/08/25 04:18:41;;;;;;;;;;;;;;;21.37;69.08;99894.03;4403591;32;32504;-87
2022/08/25 04:21:10;;;;;;;;;;;;;;;21.34;69.56;99894.28;4381208;32;33968;-87
2022/08/25 04:23:41;;;;;;;;;;;;;;;21.49;69.00;99895.63;4394730;32;34669;-87
2022/08/25 04:26:12;;;;;;;;;;;;;;;21.59;69.00;99892.97;4393435;32;35134;-88
2022/08/25 04:28:41;;;;;;;;;;;;;;;21.44;69.68;99900.56;4393676;32;33233;-88
2022/08/25 04:31:09;;;;;;;;;;;;;;;21.38;70.12;99891.19;4378293;32;33295;-88
2022/08/25 04:33:37;;;;;;;;;;;;;;;21.64;69.56;99891.59;4367451;32;33345;-89
2022/08/25 04:36:06;;;;;;;;;;;;;;;21.71;69.54;99889.22;4382126;32;36371;-88
2022/08/25 04:38:39;;;;;;;;;;;;;;;21.87;68.97;99894.91;4394802;32;32351;-87
2022/08/25 04:41:07;;;;;;;;;;;;;;;21.82;69.43;99896.31;4394148;32;33213;-87
2022/08/25 04:43:36;;;;;;;;;;;;;;;21.90;69.23;99893.81;4394341;32;34541;-87
2022/08/25 04:46:05;;;;;;;;;;;;;;;21.94;69.24;99889.88;4393097;32;34326;-87
2022/08/25 04:48:33;;;;;;;;;;;;;;;22.05;69.01;99883.50;4396647;32;31584;-87
2022/08/25 04:51:08;;;;;;;;;;;;;;;22.07;69.15;99877.00;4394800;32;33911;-87
2022/08/25 04:53:37;;;;;;;;;;;;;;;22.15;69.07;99884.41;4395010;32;34183;-87
2022/08/25 04:56:12;;;;;;;;;;;;;;;22.19;69.05;99886.69;4390039;32;35976;-87
2022/08/25 04:58:42;;;;;;;;;;;;;;;22.25;69.26;99887.97;4393803;32;32344;-87
2022/08/25 05:01:10;;;;;;;;;;;;;;;22.34;69.36;99889.81;4379055;32;34567;-88
2022/08/25 05:03:40;;;;;;;;;;;;;;;22.47;69.06;99887.72;4375574;32;33516;-87
2022/08/25 05:06:12;;;;;;;;;;;;;;;22.70;68.39;99888.28;4403840;32;35096;-87
2022/08/25 05:08:44;;;;;;;;;;;;;;;22.81;68.57;99889.13;4375878;32;32376;-87
2022/08/25 05:11:13;;;;;;;;;;;;;;;22.68;69.19;99890.25;4402405;32;33553;-85
2022/08/25 05:13:42;;;;;;;;;;;;;;;22.70;69.34;99887.44;4375071;32;33661;-85
2022/08/25 05:16:19;;;;;;;;;;;;;;;22.85;69.36;99890.53;4390237;32;33073;-85
2022/08/25 05:18:48;;;;;;;;;;;;;;;22.79;69.63;99878.50;4379749;32;32125;-85
2022/08/25 05:21:17;;;;;;;;;;;;;;;22.74;69.90;99883.44;4389532;32;33798;-85
2022/08/25 05:23:47;;;;;;;;;;;;;;;22.66;70.68;99884.16;4386224;32;34318;-86
2022/08/25 05:26:17;;;;;;;;;;;;;;;22.90;70.10;99881.06;4390124;32;33716;-88
2022/08/25 05:28:50;;;;;;;;;;;;;;;23.07;69.98;99887.53;4378903;32;33511;-85
2022/08/25 05:31:18;;;;;;;;;;;;;;;23.02;70.90;99883.56;4404021;32;34037;-85
2022/08/25 05:33:50;;;;;;;;;;;;;;;23.25;70.50;99891.19;4378447;32;34219;-85
2022/08/25 05:36:19;;;;;;;;;;;;;;;23.50;70.03;99886.16;4391217;32;33643;-85
2022/08/25 05:38:49;;;;;;;;;;;;;;;23.69;69.87;99890.62;4391030;32;33765;-85
2022/08/25 05:41:20;;;;;;;;;;;;;;;23.80;69.78;99881.50;4394781;32;33757;-85
2022/08/25 05:43:50;;;;;;;;;;;;;;;23.58;71.13;99878.16;4390285;32;34168;-85
2022/08/25 05:46:21;;;;;;;;;;;;;;;24.04;70.84;99884.50;4394194;32;33678;-86
2022/08/25 05:48:50;;;;;;;;;;;;;;;23.71;71.49;99875.16;4394128;32;32559;-86
2022/08/25 05:51:20;;;;;;;;;;;;;;;24.14;70.82;99881.72;4387384;32;33416;-87
2022/08/25 05:53:50;;;;;;;;;;;;;;;24.50;70.05;99871.84;4374290;32;33051;-87
2022/08/25 05:56:19;;;;;;;;;;;;;;;24.65;69.87;99867.59;4403828;32;33006;-87
2022/08/25 05:58:48;;;;;;;;;;;;;;;24.89;69.34;99871.50;4381411;32;32411;-87
2022/08/25 06:04:05;;;;;;;;;;;;;;;25.18;67.75;99872.06;4387547;32;35022;-86
2022/08/25 06:06:33;;;;;;;;;;;;;;;25.25;67.38;99878.50;4383579;32;33919;-86
2022/08/25 06:09:03;;;;;;;;;;;;;;;25.41;67.42;99863.44;4362496;32;33284;-86
2022/08/25 06:11:36;;;;;;;;;;;;;;;25.52;67.65;99868.53;4373719;32;32490;-86
2022/08/25 06:14:06;;;;;;;;;;;;;;;25.50;67.21;99868.72;4375215;32;34987;-87
2022/08/25 06:16:34;;;;;;;;;;;;;;;25.66;64.02;99873.34;4375059;32;33595;-83
2022/08/25 06:19:03;;;;;;;;;;;;;;;25.76;64.07;99875.94;4400858;32;33954;-86
2022/08/25 06:21:32;;;;;;;;;;;;;;;25.81;63.48;99875.47;4364374;32;33925;-86
2022/08/25 06:24:03;;;;;;;;;;;;;;;25.75;63.94;99872.41;4374284;32;33914;-86
2022/08/25 06:26:31;;;;;;;;;;;;;;;25.88;64.34;99871.09;4384535;32;35140;-86
2022/08/25 06:29:03;;;;;;;;;;;;;;;25.72;64.76;99877.25;4385412;32;33769;-86
2022/08/25 06:31:41;;;;;;;;;;;;;;;25.61;64.50;99869.44;4398466;32;34553;-86
2022/08/25 06:34:12;;;;;;;;;;;;;;;26.07;64.79;99867.28;4387512;32;34985;-84
2022/08/25 06:36:47;;;;;;;;;;;;;;;26.17;63.06;99871.53;4386426;32;34782;-88
2022/08/25 06:39:16;;;;;;;;;;;;;;;26.53;62.27;99882.09;4374379;32;33638;-86
2022/08/25 06:41:45;;;;;;;;;;;;;;;26.67;62.06;99878.72;4386562;32;32665;-84
2022/08/25 06:44:13;;;;;;;;;;;;;;;26.99;61.96;99894.13;4372671;32;32619;-87
2022/08/25 06:46:44;;;;;;;;;;;;;;;26.49;59.02;99881.59;4384728;32;35091;-85
2022/08/25 06:49:14;;;;;;;;;;;;;;;26.61;59.27;99887.53;4387944;32;34266;-87
2022/08/25 06:51:44;;;;;;;;;;;;;;;26.94;58.60;99885.66;4386795;32;31883;-87
2022/08/25 06:54:13;;;;;;;;;;;;;;;27.37;58.60;99890.88;4400313;32;33766;-87
2022/08/25 06:56:42;;;;;;;;;;;;;;;27.05;56.82;99901.56;4370507;32;33360;-87
2022/08/25 06:59:10;;;;;;;;;;;;;;;27.09;56.99;99893.97;4373508;32;33522;-88
2022/08/25 07:01:39;;;;;;;;;;;;;;;27.28;57.06;99892.75;4375042;32;33516;-88
2022/08/25 07:04:08;;;;;;;;;;;;;;;27.39;57.44;99894.25;4384202;32;33690;-87
2022/08/25 07:06:40;;;;;;;;;;;;;;;27.25;57.58;99896.69;4384735;32;35276;-88
2022/08/25 07:09:09;;;;;;;;;;;;;;;27.57;56.75;99887.59;4384487;32;33371;-87
2022/08/25 07:11:42;;;;;;;;;;;;;;;27.52;57.07;99889.97;4385273;32;35391;-87
2022/08/25 07:14:13;;;;;;;;;;;;;;;27.72;55.97;99885.03;4373930;32;34381;-84
2022/08/25 07:16:46;;;;;;;;;;;;;;;28.04;55.90;99884.03;4385308;32;34110;-84
2022/08/25 07:19:19;;;;;;;;;;;;;;;28.39;56.15;99887.28;4399745;32;33649;-87
2022/08/25 07:21:49;;;;;;;;;;;;;;;28.54;55.30;99887.34;4401130;32;33786;-87
2022/08/25 07:24:17;;;;;;;;;;;;;;;28.80;54.23;99879.63;4360685;32;33027;-87
2022/08/25 07:26:50;;;;;;;;;;;;;;;28.37;55.23;99883.88;4383683;32;36108;-87
2022/08/25 07:29:21;;;;;;;;;;;;;;;28.76;53.80;99877.47;4389814;32;34286;-87
2022/08/25 07:32:05;;;;;;;;;;;;;;;28.72;55.15;99887.00;4387766;32;33093;-88
2022/08/25 07:37:23;;;;;;;;;;;;;;;28.85;52.31;99881.81;4385568;32;34464;-85
2022/08/25 07:40:23;;;;;;;;;;;;;;;28.82;51.67;99880.31;4382440;32;33600;-86
2022/08/25 07:42:57;;;;;;;;;;;;;;;28.96;52.45;99883.28;4371759;32;33502;-86
2022/08/25 07:45:31;;;;;;;;;;;;;;;29.18;52.33;99885.09;4376423;32;32917;-85
2022/08/25 07:48:04;;;;;;;;;;;;;;;29.28;51.72;99877.50;4360174;32;34502;-86
2022/08/25 07:50:37;;;;;;;;;;;;;;;29.17;50.56;99879.84;4386465;32;32498;-85
2022/08/25 07:53:10;;;;;;;;;;;;;;;29.30;51.25;99875.47;4384789;32;34151;-86
2022/08/25 07:55:40;;;;;;;;;;;;;;;28.99;49.20;99869.31;4384547;32;32813;-86
2022/08/25 07:58:11;;;;;;;;;;;;;;;29.20;49.95;99877.63;4372600;32;35499;-86
2022/08/25 08:00:40;;;;;;;;;;;;;;;29.70;48.79;99870.63;4373685;32;32259;-86
2022/08/25 08:03:13;;;;;;;;;;;;;;;29.97;46.99;99866.34;4397230;32;35519;-86
2022/08/25 08:06:06;;;;;;;;;;;;;;;30.01;44.93;99861.38;4381980;32;31783;-87
2022/08/25 08:08:52;;;;;;;;;;;;;;;29.93;45.06;99866.94;4390650;32;34861;-88
2022/08/25 08:11:25;;;;;;;;;;;;;;;29.88;46.18;99872.94;4387743;32;32866;-88
2022/08/25 08:13:58;;;;;;;;;;;;;;;29.52;46.58;99878.28;4383358;32;34046;-87
2022/08/25 08:16:29;;;;;;;;;;;;;;;29.87;46.36;99873.16;4384347;32;31727;-86
2022/08/25 08:18:58;;;;;;;;;;;;;;;30.34;48.22;99876.25;4386837;32;33973;-88
2022/08/25 08:21:28;;;;;;;;;;;;;;;30.51;45.21;99873.25;4396424;32;33803;-89
2022/08/25 08:23:57;;;;;;;;;;;;;;;30.83;44.76;99872.75;4386031;32;33314;-88
2022/08/25 08:26:27;;;;;;;;;;;;;;;30.77;43.03;99870.81;4374441;32;34181;-88
2022/08/25 08:29:18;;;;;;;;;;;;;;;31.05;43.64;99872.72;4396042;32;33577;-87
2022/08/25 08:31:50;;;;;;;;;;;;;;;31.30;43.73;99868.53;4385146;32;33093;-88
2022/08/25 08:34:22;;;;;;;;;;;;;;;31.24;44.18;99869.31;4383335;32;34540;-88
2022/08/25 08:36:52;;;;;;;;;;;;;;;31.42;42.88;99870.69;4395993;32;34099;-87
2022/08/25 08:39:22;;;;;;;;;;;;;;;31.54;42.59;99872.66;4385678;32;36855;-88
2022/08/25 08:45:03;;;;;;;;;;;;;;;31.25;43.98;99860.06;4387418;32;32676;-88
2022/08/25 08:47:56;;;;;;;;;;;;;;;31.05;43.68;99867.25;4396712;32;33094;-88
2022/08/25 08:50:39;;;;;;;;;;;;;;;31.29;43.49;99866.84;4398061;32;33743;-88
2022/08/25 08:53:22;;;;;;;;;;;;;;;31.34;40.89;99869.81;4399726;32;33700;-88
2022/08/25 08:55:57;;;;;;;;;;;;;;;31.28;44.18;99862.41;4385076;32;33111;-88
2022/08/25 08:58:41;;;;;;;;;;;;;;;31.39;41.97;99854.75;4396461;32;33583;-88
2022/08/25 09:01:12;;;;;;;;;;;;;;;31.24;41.36;99862.97;4397995;32;34357;-88
2022/08/25 09:03:48;;;;;;;;;;;;;;;31.09;45.51;99860.38;4396644;32;33110;-87
2022/08/25 09:06:26;;;;;;;;;;;;;;;31.27;41.83;99852.56;4389422;32;32298;-89
2022/08/25 09:08:56;;;;;;;;;;;;;;;31.41;41.65;99855.38;4389519;32;34891;-90
2022/08/25 09:11:46;;;;;;;;;;;;;;;31.32;41.38;99851.97;4389288;32;34152;-89
2022/08/25 09:14:25;;;;;;;;;;;;;;;31.39;42.25;99849.28;4391669;32;32497;-89
2022/08/25 09:17:00;;;;;;;;;;;;;;;31.05;42.97;99849.03;4379144;32;33271;-89
2022/08/25 09:19:43;;;;;;;;;;;;;;;31.05;45.69;99848.16;4389018;32;33677;-89
2022/08/25 09:22:22;;;;;;;;;;;;;;;31.50;42.80;99835.06;4388280;32;33223;-89
2022/08/25 09:25:04;;;;;;;;;;;;;;;31.55;43.37;99840.75;4404127;32;31402;-89
2022/08/25 09:27:42;;;;;;;;;;;;;;;31.41;40.40;99842.56;4378211;32;32623;-89
2022/08/25 09:30:20;;;;;;;;;;;;;;;31.61;41.55;99837.22;4398032;32;33372;-89
2022/08/25 09:33:00;;;;;;;;;;;;;;;31.74;40.79;99829.09;4380151;32;32909;-90
2022/08/25 09:35:33;;;;;;;;;;;;;;;31.89;39.19;99828.97;4378760;32;32499;-90
2022/08/25 09:38:05;;;;;;;;;;;;;;;31.86;40.26;99824.78;4376244;32;33699;-90
2022/08/25 09:40:38;;;;;;;;;;;;;;;31.73;40.28;99818.37;4387939;32;33019;-89
2022/08/25 09:43:20;;;;;;;;;;;;;;;32.03;39.40;99818.94;4403335;32;34333;-89
2022/08/25 09:45:58;;;;;;;;;;;;;;;32.40;38.99;99808.53;4401918;32;31792;-88
2022/08/25 09:48:41;;;;;;;;;;;;;;;32.91;38.22;99808.78;4388613;32;33110;-89
2022/08/25 09:51:16;;;;;;;;;;;;;;;32.15;38.97;99806.34;4388365;32;33112;-89
2022/08/25 09:54:08;;;;;;;;;;;;;;;32.49;37.83;99799.06;4403937;32;32962;-89
2022/08/25 09:57:00;;;;;;;;;;;;;;;32.75;36.02;99796.31;4372750;32;32541;-88
2022/08/25 09:59:34;;;;;;;;;;;;;;;32.87;35.93;99789.19;4393802;32;32967;-89
2022/08/25 10:02:15;;;;;;;;;;;;;;;32.77;38.20;99788.78;4392110;32;33456;-89
2022/08/25 10:04:55;;;;;;;;;;;;;;;32.85;38.23;99784.97;4391258;32;32251;-90
2022/08/25 10:07:28;;;;;;;;;;;;;;;32.92;37.78;99780.37;4401315;32;32774;-90
2022/08/25 10:10:06;;;;;;;;;;;;;;;32.69;35.43;99777.19;4389868;32;34247;-91
2022/08/25 10:12:40;;;;;;;;;;;;;;;32.39;38.35;99779.53;4406471;32;33514;-91
2022/08/25 10:15:16;;;;;;;;;;;;;;;32.67;36.55;99771.13;4391574;32;33106;-90
2022/08/25 10:18:16;;;;;;;;;;;;;;;33.05;34.25;99768.56;4403069;32;33311;-91
2022/08/25 10:23:26;;;;;;;;;;;;;;;33.12;35.42;99774.84;4376529;32;32708;-89
2022/08/25 10:26:02;;;;;;;;;;;;;;;32.71;38.84;99773.22;4380354;32;32783;-89
2022/08/25 10:28:35;;;;;;;;;;;;;;;33.16;36.32;99762.44;4389432;32;34191;-89
2022/08/25 10:31:15;;;;;;;;;;;;;;;33.72;33.95;99752.78;4392306;32;32990;-89
2022/08/25 10:33:50;;;;;;;;;;;;;;;33.83;34.72;99763.03;4394006;32;34105;-90
2022/08/25 10:36:32;;;;;;;;;;;;;;;34.14;32.30;99756.75;4382624;32;34290;-89
2022/08/25 10:39:02;;;;;;;;;;;;;;;34.40;34.22;99751.06;4389268;32;32999;-89
2022/08/25 10:41:51;;;;;;;;;;;;;;;34.43;34.13;99751.69;4387685;32;32845;-89
2022/08/25 10:47:16;;;;;;;;;;;;;;;34.02;35.26;99742.91;4391177;32;34409;-91
2022/08/25 10:49:50;;;;;;;;;;;;;;;34.18;33.59;99741.53;4400485;32;33083;-91
2022/08/25 10:52:21;;;;;;;;;;;;;;;34.71;30.48;99743.88;4388255;32;32897;-90
2022/08/25 10:54:55;;;;;;;;;;;;;;;34.75;31.55;99736.84;4380516;32;33412;-91
2022/08/25 10:57:27;;;;;;;;;;;;;;;34.37;31.43;99735.06;4404227;32;33063;-90
2022/08/25 11:00:09;;;;;;;;;;;;;;;34.29;32.74;99731.78;4401019;32;32490;-90
2022/08/25 11:02:56;;;;;;;;;;;;;;;34.51;32.64;99726.75;4391436;32;33949;-90
2022/08/25 11:05:30;;;;;;;;;;;;;;;34.41;30.81;99727.22;4391701;32;33229;-91
2022/08/25 11:08:05;;;;;;;;;;;;;;;34.43;31.52;99721.53;4401183;32;34843;-90
2022/08/25 11:10:37;;;;;;;;;;;;;;;33.55;32.22;99719.56;4389003;32;32860;-90
2022/08/25 11:13:09;;;;;;;;;;;;;;;34.15;34.86;99717.31;4365104;32;33392;-91
2022/08/25 11:15:44;;;;;;;;;;;;;;;33.89;34.88;99715.56;4390005;32;34935;-91
2022/08/25 11:18:33;;;;;;;;;;;;;;;34.63;32.18;99711.25;4390814;32;33219;-91
2022/08/25 11:21:06;;;;;;;;;;;;;;;34.74;31.50;99709.66;4390617;32;33486;-91
2022/08/25 11:23:38;;;;;;;;;;;;;;;34.97;31.54;99709.03;4380235;32;32977;-91
2022/08/25 11:26:12;;;;;;;;;;;;;;;35.00;32.05;99705.84;4389607;32;34263;-90
2022/08/25 11:28:47;;;;;;;;;;;;;;;35.34;30.79;99699.69;4389202;32;33854;-90
2022/08/25 11:31:17;;;;;;;;;;;;;;;34.92;31.57;99698.69;4389325;32;34260;-90
2022/08/25 11:33:53;;;;;;;;;;;;;;;34.99;31.80;99693.16;4401147;32;33531;-90
2022/08/25 11:36:32;;;;;;;;;;;;;;;35.16;31.27;99694.22;4391081;32;34394;-90
2022/08/25 11:39:17;;;;;;;;;;;;;;;34.37;37.95;99685.72;4404626;32;32999;-91
2022/08/25 11:42:14;;;;;;;;;;;;;;;34.84;34.87;99679.78;4403051;32;33215;-91
2022/08/25 11:44:51;;;;;;;;;;;;;;;35.28;30.19;99675.09;4388347;32;32601;-90
2022/08/25 11:47:29;;;;;;;;;;;;;;;35.34;33.95;99672.25;4401703;32;34387;-91
2022/08/25 11:50:08;;;;;;;;;;;;;;;35.79;30.49;99660.00;4390085;32;33259;-91
2022/08/25 11:52:44;;;;;;;;;;;;;;;35.82;30.14;99665.03;4390815;32;32321;-91
2022/08/25 11:55:16;;;;;;;;;;;;;;;35.90;29.85;99660.06;4391274;32;33988;-90
2022/08/25 11:57:52;;;;;;;;;;;;;;;35.75;30.54;99659.66;4399567;32;33206;-90
2022/08/25 12:00:28;;;;;;;;;;;;;;;35.80;28.42;99659.78;4390242;32;33864;-90
2022/08/25 12:03:07;;;;;;;;;;;;;;;34.98;30.36;99658.56;4392202;32;32706;-91
2022/08/25 12:05:40;;;;;;;;;;;;;;;35.09;30.82;99655.06;4404360;32;34051;-91
2022/08/25 12:11:06;;;;;;;;;;;;;;;35.46;30.26;99649.50;4387752;32;34941;-91
2022/08/25 12:13:45;;;;;;;;;;;;;;;35.56;30.50;99649.78;4390021;32;32601;-91
2022/08/25 12:16:54;;;;;;;;;;;;;;;35.61;30.25;99652.69;4368228;32;32614;-90
2022/08/25 12:19:34;;;;;;;;;;;;;;;35.00;30.51;99643.56;4353878;32;33003;-91
2022/08/25 12:22:15;;;;;;;;;;;;;;;35.13;30.88;99651.63;4384190;32;33348;-91
2022/08/25 12:24:44;;;;;;;;;;;;;;;35.01;30.75;99650.72;4389567;32;33062;-90
2022/08/25 12:27:24;;;;;;;;;;;;;;;35.16;34.08;99655.81;4377222;32;32955;-91
2022/08/25 12:29:55;;;;;;;;;;;;;;;35.62;31.04;99643.37;4389211;32;33120;-90
2022/08/25 12:32:55;;;;;;;;;;;;;;;35.61;32.77;99639.81;4377419;32;34149;-91
2022/08/25 12:35:33;;;;;;;;;;;;;;;35.92;30.76;99644.16;4386221;32;32552;-91
2022/08/25 12:38:03;;;;;;;;;;;;;;;35.47;30.31;99641.06;4389461;32;34699;-91
2022/08/25 12:40:42;;;;;;;;;;;;;;;35.68;29.69;99625.13;4376639;32;33199;-90
2022/08/25 12:43:20;;;;;;;;;;;;;;;36.21;30.78;99633.34;4376003;32;33635;-91
2022/08/25 12:45:53;;;;;;;;;;;;;;;36.16;31.04;99622.22;4369317;32;32176;-91
2022/08/25 12:48:25;;;;;;;;;;;;;;;35.82;31.60;99627.41;4366364;32;33109;-91
2022/08/25 12:50:56;;;;;;;;;;;;;;;35.55;32.63;99620.66;4378811;32;33833;-91
2022/08/25 12:53:53;;;;;;;;;;;;;;;35.28;35.18;99628.44;4391219;32;34447;-90
2022/08/25 12:56:59;;;;;;;;;;;;;;;35.26;34.34;99616.81;4366411;32;32881;-91
2022/08/25 12:59:39;;;;;;;;;;;;;;;36.02;31.57;99620.78;4367075;32;34005;-91
2022/08/25 13:06:16;;;;;;;;;;;;;;;35.91;32.09;99620.50;4380147;32;35257;-91
2022/08/25 13:08:45;;;;;;;;;;;;;;;35.95;33.36;99611.84;4378652;32;33274;-90
2022/08/25 13:11:35;;;;;;;;;;;;;;;36.27;31.43;99606.81;4383605;32;33390;-91
2022/08/25 13:14:06;;;;;;;;;;;;;;;36.17;32.04;99605.50;4380237;32;33047;-90
2022/08/25 13:16:45;;;;;;;;;;;;;;;35.45;33.77;99612.13;4366012;32;33684;-91
2022/08/25 13:19:28;;;;;;;;;;;;;;;35.68;33.05;99606.72;4389924;32;32493;-90
2022/08/25 13:22:15;;;;;;;;;;;;;;;35.21;33.57;99602.97;4379040;32;33794;-91
2022/08/25 13:24:59;;;;;;;;;;;;;;;34.76;35.18;99612.37;4380768;32;33142;-90
2022/08/25 13:27:51;;;;;;;;;;;;;;;34.60;35.99;99613.81;4378864;32;33016;-91
2022/08/25 13:30:27;;;;;;;;;;;;;;;34.40;35.72;99603.03;4379130;32;31967;-90
2022/08/25 13:33:17;;;;;;;;;;;;;;;34.25;36.93;99610.78;4378867;32;34356;-91
2022/08/25 13:39:34;;;;;;;;;;;;;;;34.43;36.22;99611.87;4368850;32;33935;-90
2022/08/25 13:42:27;;;;;;;;;;;;;;;34.35;35.24;99600.13;4349390;32;32436;-90
2022/08/25 13:45:07;;;;;;;;;;;;;;;33.68;39.57;99604.50;4378930;32;34987;-91
2022/08/25 13:47:38;;;;;;;;;;;;;;;33.88;39.02;99599.69;4366475;32;33499;-91